Time;durP1;ratioP1;P1;durP2;ratioP2;P2;SDS_P1;SDS_P2;PMS_P1;PMS_P2;Temp;Humidity;BMP_temperature;BMP_pressure;BME280_temperature;BME280_humidity;BME280_pressure;Samples;Min_cycle;Max_cycle;Signal;HPM_P1;HPM_P2
2023/04/09 00:01:02;;;;;;;5.85;2.25;;;;;;;10.14;96.72;102054.81;5065016;28;20034;-69
2023/04/09 00:03:27;;;;;;;8.55;3.40;;;;;;;10.16;97.19;102056.06;4957798;28;20103;-70
2023/04/09 00:05:54;;;;;;;13.70;4.47;;;;;;;10.20;96.91;102048.16;4989515;28;20438;-69
2023/04/09 00:08:19;;;;;;;7.68;3.50;;;;;;;10.22;96.77;102052.09;4969928;28;20458;-70
2023/04/09 00:10:45;;;;;;;11.07;3.13;;;;;;;10.19;96.67;102060.00;4987741;28;20022;-69
2023/04/09 00:13:10;;;;;;;18.13;4.07;;;;;;;10.20;96.35;102057.00;4985988;28;20042;-69
2023/04/09 00:15:36;;;;;;;10.57;3.67;;;;;;;10.19;96.67;102044.66;4984721;28;20054;-70
2023/04/09 00:18:01;;;;;;;8.30;4.15;;;;;;;10.16;96.54;102050.69;4968469;28;20441;-70
2023/04/09 00:20:27;;;;;;;8.60;3.20;;;;;;;10.16;96.67;102039.13;4971815;28;20042;-69
2023/04/09 00:22:52;;;;;;;7.63;3.25;;;;;;;10.13;97.15;102037.06;4989188;28;20046;-69
2023/04/09 00:25:18;;;;;;;11.38;3.92;;;;;;;10.17;96.68;102041.50;4977788;28;20234;-69
2023/04/09 00:27:44;;;;;;;11.55;4.93;;;;;;;10.14;96.66;102039.44;4991844;28;20042;-69
2023/04/09 00:30:13;;;;;;;15.05;5.25;;;;;;;10.15;97.08;102049.09;4977243;28;20068;-69
2023/04/09 00:32:39;;;;;;;12.07;4.40;;;;;;;10.09;96.53;102039.56;4977282;28;20113;-69
2023/04/09 00:35:05;;;;;;;8.02;3.65;;;;;;;10.11;96.83;102042.75;4988019;28;20494;-70
2023/04/09 00:37:30;;;;;;;7.13;3.22;;;;;;;10.07;97.33;102047.16;4975958;28;20035;-70
2023/04/09 00:39:56;;;;;;;13.90;4.38;;;;;;;10.02;97.01;102037.38;5006780;28;20046;-69
2023/04/09 00:42:21;;;;;;;13.80;4.85;;;;;;;10.02;96.95;102044.63;5065063;28;20052;-69
2023/04/09 00:44:47;;;;;;;17.35;4.60;;;;;;;9.93;97.55;102043.81;5067086;28;20118;-69
2023/04/09 00:47:12;;;;;;;11.77;5.32;;;;;;;10.01;97.10;102037.66;5089245;28;20711;-69
2023/04/09 00:49:38;;;;;;;12.90;4.10;;;;;;;9.98;98.02;102043.69;5070608;28;20047;-69
2023/04/09 00:52:04;;;;;;;17.33;5.10;;;;;;;10.00;97.73;102036.09;5064298;28;20032;-69
2023/04/09 00:54:29;;;;;;;16.20;4.72;;;;;;;10.06;97.40;102042.91;5089528;28;20059;-69
2023/04/09 00:56:56;;;;;;;11.60;4.63;;;;;;;10.09;97.41;102039.56;5087513;28;20036;-69
2023/04/09 00:59:24;;;;;;;10.65;4.05;;;;;;;10.12;97.21;102041.66;5094259;28;20035;-69
2023/04/09 01:01:49;;;;;;;12.35;4.38;;;;;;;10.13;96.79;102040.53;5079159;28;20491;-69
2023/04/09 01:04:15;;;;;;;18.92;4.82;;;;;;;10.09;96.72;102038.75;5062252;28;20081;-69
2023/04/09 01:06:46;;;;;;;17.80;5.03;;;;;;;10.08;97.00;102035.31;5073808;28;20027;-69
2023/04/09 01:09:32;;;;;;;14.63;5.20;;;;;;;10.13;96.60;102037.84;5071644;28;20587;-69
2023/04/09 01:12:04;;;;;;;16.08;3.85;;;;;;;10.10;96.99;102043.88;5075052;28;20565;-70
2023/04/09 01:14:39;;;;;;;12.10;4.28;;;;;;;10.10;96.92;102051.16;5070209;28;20131;-69
2023/04/09 01:17:17;;;;;;;12.85;3.72;;;;;;;10.08;96.79;102053.34;5063657;28;20097;-69
2023/04/09 01:20:07;;;;;;;11.82;4.25;;;;;;;10.03;97.31;102047.00;5054647;28;20040;-69
2023/04/09 01:22:45;;;;;;;10.40;4.30;;;;;;;10.00;97.65;102041.47;5088705;28;20082;-69
2023/04/09 01:25:30;;;;;;;11.40;4.13;;;;;;;9.94;97.65;102048.13;5070197;28;20033;-69
2023/04/09 01:28:09;;;;;;;9.88;3.38;;;;;;;9.97;98.09;102050.97;5088615;28;20067;-70
2023/04/09 01:30:35;;;;;;;14.80;3.65;;;;;;;10.03;98.30;102047.00;5091605;28;20035;-70
2023/04/09 01:33:03;;;;;;;12.98;3.90;;;;;;;10.04;97.51;102040.50;5075136;28;20384;-69
2023/04/09 01:35:28;;;;;;;16.17;4.53;;;;;;;10.08;98.06;102042.56;5067700;28;20025;-69
2023/04/09 01:37:56;;;;;;;9.95;4.68;;;;;;;10.01;97.68;102035.75;5065044;28;20514;-69
2023/04/09 01:40:21;;;;;;;18.05;4.55;;;;;;;10.01;97.72;102029.59;5070825;28;20434;-70
2023/04/09 01:42:48;;;;;;;8.40;4.30;;;;;;;10.02;97.42;102031.97;5060313;28;20028;-69
2023/04/09 01:45:15;;;;;;;12.13;4.22;;;;;;;10.01;97.95;102037.66;5073365;28;20034;-69
2023/04/09 01:47:40;;;;;;;15.45;5.10;;;;;;;9.97;97.29;102034.81;5059404;28;20454;-69
2023/04/09 01:50:07;;;;;;;5.82;3.20;;;;;;;9.96;98.07;102037.81;5069679;28;20036;-69
2023/04/09 01:52:33;;;;;;;12.07;4.18;;;;;;;9.98;97.83;102030.22;5072951;28;20020;-70
2023/04/09 01:54:58;;;;;;;18.95;5.68;;;;;;;9.99;97.77;102029.09;5069959;28;20031;-68
2023/04/09 01:57:24;;;;;;;13.70;5.05;;;;;;;10.04;97.88;102026.28;5078237;28;20067;-70
2023/04/09 01:59:49;;;;;;;17.85;4.28;;;;;;;10.07;97.34;102027.53;5050790;28;20040;-69
2023/04/09 02:02:29;;;;;;;7.97;3.75;;;;;;;10.04;97.77;102027.03;5068662;28;20031;-69
2023/04/09 02:04:57;;;;;;;7.57;3.97;;;;;;;10.08;97.11;102021.84;5092453;28;20496;-69
2023/04/09 02:07:58;;;;;;;11.52;4.65;;;;;;;10.10;97.45;102021.56;5070221;28;20491;-69
2023/04/09 02:10:28;;;;;;;24.92;4.53;;;;;;;10.05;97.08;102017.09;4984512;28;20038;-70
2023/04/09 02:12:55;;;;;;;10.88;3.85;;;;;;;10.01;97.71;102013.44;5049466;28;20036;-70
2023/04/09 02:15:21;;;;;;;18.58;4.78;;;;;;;9.99;97.77;102016.44;5049844;28;20123;-69
2023/04/09 02:17:47;;;;;;;8.27;3.90;;;;;;;9.96;97.97;102013.59;5053974;28;20119;-67
2023/04/09 02:20:17;;;;;;;13.63;4.22;;;;;;;9.97;97.99;102018.66;5071658;28;20063;-70
2023/04/09 02:22:44;;;;;;;12.63;4.45;;;;;;;9.97;98.61;102018.66;5083196;28;20085;-70
2023/04/09 02:25:10;;;;;;;15.35;3.90;;;;;;;10.03;98.07;102014.72;5056491;28;20118;-69
2023/04/09 02:27:35;;;;;;;12.25;3.80;;;;;;;10.00;97.47;102009.97;5056125;28;20470;-69
2023/04/09 02:30:01;;;;;;;18.58;3.63;;;;;;;10.02;97.85;102023.09;5063728;28;20123;-69
2023/04/09 02:32:26;;;;;;;22.98;5.25;;;;;;;9.97;97.72;102015.97;5073500;28;20424;-69
2023/04/09 02:34:51;;;;;;;8.38;5.28;;;;;;;9.99;97.99;102013.75;5063838;28;20027;-69
2023/04/09 02:37:17;;;;;;;15.52;4.57;;;;;;;10.00;97.81;102022.63;5074620;28;20652;-70
2023/04/09 02:39:43;;;;;;;14.10;3.85;;;;;;;10.01;98.05;102016.94;5078330;28;20494;-69
2023/04/09 02:42:08;;;;;;;8.75;3.40;;;;;;;10.04;97.85;102010.13;5062924;28;20111;-69
2023/04/09 02:44:34;;;;;;;8.52;4.07;;;;;;;10.02;98.01;102012.34;5050761;28;20032;-68
2023/04/09 02:47:00;;;;;;;10.15;3.05;;;;;;;9.99;98.04;102008.38;5063432;28;20016;-69
2023/04/09 02:49:25;;;;;;;14.98;3.35;;;;;;;9.94;98.13;101999.69;5084430;28;20048;-70
2023/04/09 02:51:51;;;;;;;8.55;3.75;;;;;;;9.95;98.67;102003.94;5069809;28;20020;-69
2023/04/09 02:54:16;;;;;;;10.60;3.22;;;;;;;9.93;97.70;102006.94;5062682;28;20039;-69
2023/04/09 02:56:42;;;;;;;10.90;3.75;;;;;;;9.96;97.92;102000.94;5077761;28;20032;-70
2023/04/09 02:59:07;;;;;;;7.95;3.78;;;;;;;9.95;98.33;101991.28;5072748;28;20081;-70
2023/04/09 03:01:33;;;;;;;15.57;4.60;;;;;;;9.91;98.55;101994.94;5067855;28;20559;-70
2023/04/09 03:04:02;;;;;;;10.48;4.03;;;;;;;9.90;98.18;101990.66;5055896;28;20123;-69
2023/04/09 03:06:28;;;;;;;9.10;2.92;;;;;;;9.90;98.59;101990.66;5071151;28;20115;-69
2023/04/09 03:08:53;;;;;;;17.50;3.35;;;;;;;9.95;98.00;101985.91;5088862;28;20123;-69
2023/04/09 03:11:18;;;;;;;14.57;4.65;;;;;;;9.97;98.15;101986.38;5091450;28;20108;-69
2023/04/09 03:13:45;;;;;;;8.88;3.95;;;;;;;9.97;98.21;101983.69;5067404;28;20062;-69
2023/04/09 03:16:10;;;;;;;11.68;4.40;;;;;;;10.01;98.21;101984.63;5063933;28;20040;-70
2023/04/09 03:18:36;;;;;;;7.53;3.75;;;;;;;9.97;98.37;101986.38;5085151;28;20052;-70
2023/04/09 03:21:07;;;;;;;11.50;3.38;;;;;;;9.92;98.48;101991.94;5089705;28;20496;-70
2023/04/09 03:23:36;;;;;;;12.43;3.92;;;;;;;9.85;98.23;101985.44;5070573;28;20377;-71
2023/04/09 03:26:04;;;;;;;18.77;4.10;;;;;;;9.77;97.97;101983.53;5069749;28;20114;-69
2023/04/09 03:28:37;;;;;;;6.00;3.30;;;;;;;9.77;98.80;101984.34;5067282;28;20055;-69
2023/04/09 03:31:02;;;;;;;19.17;4.03;;;;;;;9.83;98.49;101982.28;5083787;28;20059;-70
2023/04/09 03:33:33;;;;;;;5.97;2.57;;;;;;;9.87;98.45;101977.84;5049768;28;20058;-69
2023/04/09 03:35:58;;;;;;;14.20;4.28;;;;;;;9.90;98.63;101982.59;5085202;28;20313;-70
2023/04/09 03:38:42;;;;;;;15.90;4.25;;;;;;;9.90;98.46;101979.88;5092593;28;20055;-70
2023/04/09 03:41:20;;;;;;;16.70;5.13;;;;;;;9.89;98.54;101986.41;5059735;28;20093;-71
2023/04/09 03:43:45;;;;;;;12.25;3.92;;;;;;;9.94;98.60;101983.53;5082872;28;20027;-70
2023/04/09 03:46:15;;;;;;;10.05;3.90;;;;;;;9.93;98.43;101980.03;5068130;28;20434;-69
2023/04/09 03:48:43;;;;;;;11.13;4.13;;;;;;;9.94;98.41;101984.34;5074118;28;20032;-70
2023/04/09 03:51:16;;;;;;;15.43;4.57;;;;;;;9.92;98.09;101978.47;5068486;28;20062;-69
2023/04/09 03:53:50;;;;;;;16.55;5.13;;;;;;;9.90;98.39;101994.16;5058914;28;20042;-70
2023/04/09 03:56:16;;;;;;;10.32;4.40;;;;;;;9.87;98.53;101985.91;5065929;28;20107;-70
2023/04/09 03:58:42;;;;;;;8.50;4.85;;;;;;;9.80;98.53;101989.06;5065895;28;20115;-69
2023/04/09 04:01:10;;;;;;;17.77;5.35;;;;;;;9.85;98.47;101988.91;5064341;28;20032;-70
2023/04/09 04:03:42;;;;;;;13.07;3.67;;;;;;;9.86;98.78;101982.44;5060872;28;20032;-70
2023/04/09 04:06:16;;;;;;;10.38;4.20;;;;;;;9.95;98.62;101990.47;5068831;28;20035;-70
2023/04/09 04:08:51;;;;;;;12.10;3.00;;;;;;;9.91;98.22;101986.88;5055373;28;20532;-70
2023/04/09 04:11:19;;;;;;;11.02;4.10;;;;;;;9.93;97.79;101987.31;5066896;28;20031;-69
2023/04/09 04:13:45;;;;;;;12.48;3.83;;;;;;;9.83;98.21;101984.97;5063788;28;20029;-69
2023/04/09 04:16:10;;;;;;;11.88;5.00;;;;;;;9.83;98.22;101982.28;5087723;28;20028;-69
2023/04/09 04:18:38;;;;;;;15.93;5.35;;;;;;;9.75;98.89;101989.25;5064951;28;20124;-69
2023/04/09 04:21:04;;;;;;;10.52;2.97;;;;;;;9.78;98.80;101995.88;5070629;28;20123;-70
2023/04/09 04:23:33;;;;;;;16.80;4.25;;;;;;;9.85;98.48;101999.66;5096285;28;20353;-70
2023/04/09 04:26:10;;;;;;;9.15;3.92;;;;;;;9.86;98.45;101997.78;5077049;28;20035;-70
2023/04/09 04:28:37;;;;;;;9.18;3.72;;;;;;;9.84;98.79;102000.00;5058200;28;20036;-69
2023/04/09 04:31:10;;;;;;;23.23;4.85;;;;;;;9.82;98.46;102004.88;5058631;28;20063;-70
2023/04/09 04:33:37;;;;;;;5.72;2.88;;;;;;;9.83;98.54;101993.81;5083874;28;20396;-70
2023/04/09 04:36:11;;;;;;;15.98;5.00;;;;;;;9.85;98.80;101993.50;5076185;28;20032;-70
2023/04/09 04:38:40;;;;;;;7.28;2.67;;;;;;;9.77;99.06;101995.09;5093715;28;20043;-70
2023/04/09 04:41:12;;;;;;;7.75;3.22;;;;;;;9.83;98.89;101996.50;5066723;28;20047;-70
2023/04/09 04:43:41;;;;;;;9.38;3.85;;;;;;;9.79;99.04;102005.53;5061556;28;20036;-70
2023/04/09 04:46:14;;;;;;;13.00;3.60;;;;;;;9.80;99.23;101996.34;5072142;28;20059;-70
2023/04/09 04:48:40;;;;;;;9.07;3.28;;;;;;;9.85;98.89;101996.97;5072485;28;20066;-68
2023/04/09 04:51:06;;;;;;;14.40;2.75;;;;;;;9.81;98.83;101990.63;5063720;28;20031;-70
2023/04/09 04:53:39;;;;;;;7.60;3.28;;;;;;;9.85;99.21;101993.50;5081827;28;20449;-70
2023/04/09 04:56:15;;;;;;;16.88;4.80;;;;;;;9.85;99.09;101996.19;5067706;28;20573;-70
2023/04/09 04:59:00;;;;;;;8.07;4.30;;;;;;;9.90;98.44;101991.44;5087948;28;20104;-70
2023/04/09 05:01:51;;;;;;;6.07;3.00;;;;;;;9.79;98.59;101998.22;5074283;28;20031;-69
2023/04/09 05:04:16;;;;;;;8.57;4.22;;;;;;;9.86;98.70;101998.56;4996783;28;20045;-69
2023/04/09 05:06:42;;;;;;;8.30;3.25;;;;;;;9.82;98.54;101991.44;5033026;28;20522;-69
2023/04/09 05:09:11;;;;;;;13.10;3.35;;;;;;;9.79;99.20;101992.84;5003631;28;20470;-69
2023/04/09 05:11:45;;;;;;;11.77;3.90;;;;;;;9.80;98.85;101996.34;5011503;28;20529;-69
2023/04/09 05:14:15;;;;;;;8.02;2.75;;;;;;;9.80;99.08;102004.41;5012270;28;20025;-69
2023/04/09 05:16:41;;;;;;;5.05;2.65;;;;;;;9.79;98.81;101997.47;5015184;28;20530;-69
2023/04/09 05:19:07;;;;;;;14.18;2.67;;;;;;;9.80;99.35;102002.53;5028304;28;20057;-69
2023/04/09 05:21:32;;;;;;;12.75;4.00;;;;;;;9.85;99.53;101996.19;5012936;28;20041;-69
2023/04/09 05:23:59;;;;;;;12.30;3.40;;;;;;;9.85;99.08;102009.66;5010657;28;20426;-69
2023/04/09 05:26:28;;;;;;;7.10;3.33;;;;;;;9.88;98.87;102009.00;4998252;28;20485;-69
2023/04/09 05:28:56;;;;;;;9.02;3.45;;;;;;;9.87;99.50;102004.75;5013438;28;20042;-69
2023/04/09 05:31:23;;;;;;;7.45;2.58;;;;;;;9.85;98.91;102007.72;5024564;28;20095;-69
2023/04/09 05:33:56;;;;;;;9.07;2.75;;;;;;;9.91;99.37;102005.72;5025410;28;20036;-69
2023/04/09 05:36:31;;;;;;;12.90;3.10;;;;;;;9.96;98.74;102010.91;5008091;28;20081;-69
2023/04/09 05:38:57;;;;;;;13.35;3.17;;;;;;;9.93;99.00;102019.59;4998573;28;20036;-69
2023/04/09 05:41:22;;;;;;;10.45;3.10;;;;;;;9.94;99.01;102011.25;5047813;28;20416;-69
2023/04/09 05:44:01;;;;;;;11.65;3.10;;;;;;;10.00;99.03;102017.25;5091608;28;20028;-70
2023/04/09 05:46:28;;;;;;;4.72;2.28;;;;;;;10.03;98.71;102022.78;5073406;28;20039;-69
2023/04/09 05:48:54;;;;;;;8.15;2.88;;;;;;;10.02;98.17;102023.09;5072351;28;20496;-69
2023/04/09 05:51:21;;;;;;;9.57;3.65;;;;;;;9.97;98.07;102018.66;5059241;28;20040;-70
2023/04/09 05:53:46;;;;;;;5.57;3.25;;;;;;;9.95;98.80;102017.38;5073875;28;20034;-69
2023/04/09 05:56:14;;;;;;;18.75;3.13;;;;;;;9.75;98.72;102023.41;5052555;28;20385;-69
2023/04/09 05:58:46;;;;;;;9.05;3.50;;;;;;;9.85;99.03;102018.50;5073484;28;20039;-69
2023/04/09 06:01:12;;;;;;;8.75;3.15;;;;;;;9.88;99.65;102025.16;5069130;28;20036;-69
2023/04/09 06:03:38;;;;;;;8.02;2.30;;;;;;;9.96;99.32;102024.38;5061563;28;20392;-69
2023/04/09 06:06:03;;;;;;;5.45;2.45;;;;;;;9.97;99.09;102017.88;5068003;28;20077;-70
2023/04/09 06:08:29;;;;;;;4.03;2.25;;;;;;;10.00;99.18;102022.63;5058213;28;20063;-69
2023/04/09 06:10:54;;;;;;;10.45;3.47;;;;;;;9.93;99.37;102020.41;5074310;28;20031;-69
2023/04/09 06:13:40;;;;;;;9.07;3.80;;;;;;;9.95;99.24;102022.78;5059640;28;20032;-69
2023/04/09 06:16:07;;;;;;;7.53;3.65;;;;;;;9.99;99.17;102029.91;5000444;28;20072;-69
2023/04/09 06:18:33;;;;;;;8.43;2.03;;;;;;;9.99;98.85;102029.09;5016971;28;20043;-69
2023/04/09 06:21:06;;;;;;;13.88;3.03;;;;;;;9.98;98.99;102027.53;5005187;28;20061;-70
2023/04/09 06:23:33;;;;;;;12.90;3.60;;;;;;;9.99;98.76;102029.09;5009304;28;20054;-69
2023/04/09 06:25:59;;;;;;;9.35;2.80;;;;;;;10.05;98.95;102027.84;5028925;28;20116;-69
2023/04/09 06:28:25;;;;;;;5.45;2.72;;;;;;;10.15;98.98;102027.56;5028804;28;20148;-69
2023/04/09 06:30:52;;;;;;;9.00;3.72;;;;;;;10.16;98.45;102028.38;5012897;28;20108;-69
2023/04/09 06:33:19;;;;;;;11.13;2.88;;;;;;;10.08;98.59;102032.63;5011304;28;21827;-69
2023/04/09 06:35:45;;;;;;;7.82;3.60;;;;;;;10.15;98.40;102046.41;4996921;28;20029;-69
2023/04/09 06:38:10;;;;;;;10.38;2.83;;;;;;;10.10;98.66;102037.69;5026726;28;20041;-70
2023/04/09 06:40:37;;;;;;;8.75;2.75;;;;;;;10.05;98.76;102035.91;5027169;28;20195;-69
2023/04/09 06:43:03;;;;;;;6.00;3.00;;;;;;;10.18;97.99;102036.91;5018074;28;20433;-69
2023/04/09 06:45:36;;;;;;;15.52;3.50;;;;;;;10.15;98.75;102035.63;5001000;28;20041;-69
2023/04/09 06:48:03;;;;;;;6.55;1.92;;;;;;;10.21;98.55;102039.75;5024287;28;20104;-70
2023/04/09 06:50:28;;;;;;;12.73;2.95;;;;;;;10.16;97.60;102044.50;5028149;28;20112;-69
2023/04/09 06:52:54;;;;;;;6.50;2.90;;;;;;;10.12;98.95;102040.88;5044434;28;20134;-69
2023/04/09 06:55:20;;;;;;;5.93;3.20;;;;;;;10.21;98.47;102037.06;5076053;28;20063;-69
2023/04/09 06:57:46;;;;;;;4.10;2.03;;;;;;;10.24;98.85;102039.09;5063088;28;20052;-69
2023/04/09 07:00:12;;;;;;;4.00;2.22;;;;;;;10.34;98.58;102038.00;5089400;28;20400;-70
2023/04/09 07:02:37;;;;;;;3.22;2.63;;;;;;;10.35;98.09;102042.28;5074254;28;20496;-69
2023/04/09 07:05:03;;;;;;;8.80;3.58;;;;;;;10.35;98.42;102039.59;5087853;28;20028;-69
2023/04/09 07:07:29;;;;;;;5.43;2.25;;;;;;;10.39;97.90;102041.34;5072204;28;20519;-69
2023/04/09 07:09:55;;;;;;;9.50;3.00;;;;;;;10.41;97.79;102041.81;5085637;28;20043;-69
2023/04/09 07:12:27;;;;;;;5.93;2.70;;;;;;;10.47;98.03;102050.50;5052580;28;20107;-69
2023/04/09 07:14:56;;;;;;;5.70;2.75;;;;;;;10.49;97.73;102053.69;5080314;28;20404;-69
2023/04/09 07:17:22;;;;;;;7.07;3.15;;;;;;;10.10;97.51;102048.47;5058847;28;20405;-70
2023/04/09 07:19:48;;;;;;;6.03;3.72;;;;;;;10.22;98.49;102045.94;5068192;28;20021;-69
2023/04/09 07:22:13;;;;;;;9.15;2.85;;;;;;;10.27;98.44;102049.25;5078998;28;20039;-69
2023/04/09 07:24:39;;;;;;;13.27;2.78;;;;;;;10.40;98.70;102036.72;5083521;28;20029;-69
2023/04/09 07:27:05;;;;;;;2.97;2.45;;;;;;;10.51;97.90;102046.84;5067094;28;20027;-69
2023/04/09 07:29:31;;;;;;;9.98;4.05;;;;;;;10.58;96.95;102044.47;5088111;28;20500;-69
2023/04/09 07:31:56;;;;;;;7.53;3.20;;;;;;;10.56;96.56;102052.06;5085575;28;20024;-69
2023/04/09 07:34:25;;;;;;;3.85;1.70;;;;;;;10.62;96.77;102052.69;5089805;28;20646;-69
2023/04/09 07:36:51;;;;;;;4.70;2.70;;;;;;;10.67;97.08;102050.63;5052747;28;20035;-69
2023/04/09 07:39:17;;;;;;;11.43;3.38;;;;;;;10.70;96.61;102049.19;5091537;28;20444;-70
2023/04/09 07:41:42;;;;;;;6.85;2.42;;;;;;;10.71;96.59;102059.66;5085332;28;20056;-69
2023/04/09 07:44:08;;;;;;;5.43;2.83;;;;;;;10.83;95.82;102045.50;5088653;28;20129;-69
2023/04/09 07:46:33;;;;;;;5.22;2.03;;;;;;;10.81;95.73;102053.13;5066342;28;20036;-69
2023/04/09 07:48:59;;;;;;;7.35;1.75;;;;;;;10.70;95.16;102049.97;5067520;28;20051;-69
2023/04/09 07:51:24;;;;;;;4.43;2.45;;;;;;;10.75;95.46;102054.41;5083801;28;20024;-69
2023/04/09 07:53:50;;;;;;;4.78;2.20;;;;;;;10.82;95.76;102054.69;5066790;28;20043;-69
2023/04/09 07:56:15;;;;;;;7.68;2.95;;;;;;;10.76;94.46;102054.06;5071325;28;20026;-69
2023/04/09 07:58:41;;;;;;;6.30;2.53;;;;;;;10.81;94.71;102048.53;5086861;28;20404;-69
2023/04/09 08:01:07;;;;;;;9.50;2.53;;;;;;;10.86;94.88;102050.25;5063820;28;20036;-70
2023/04/09 08:03:34;;;;;;;7.47;1.98;;;;;;;10.82;94.75;102042.00;5069038;28;20046;-70
2023/04/09 08:06:00;;;;;;;5.70;3.05;;;;;;;10.85;94.69;102051.38;5082387;28;20036;-70
2023/04/09 08:08:26;;;;;;;5.43;2.38;;;;;;;10.84;94.34;102057.84;5078319;28;20040;-71
2023/04/09 08:10:52;;;;;;;6.78;3.15;;;;;;;10.86;94.78;102051.03;5047285;28;20642;-69
2023/04/09 08:13:17;;;;;;;6.60;3.45;;;;;;;10.95;94.10;102061.00;5083144;28;20688;-69
2023/04/09 08:15:43;;;;;;;10.18;2.58;;;;;;;10.98;93.66;102055.75;5082926;28;20036;-69
2023/04/09 08:18:08;;;;;;;4.07;2.55;;;;;;;11.02;93.75;102058.59;5085794;28;20111;-69
2023/04/09 08:20:34;;;;;;;7.78;2.10;;;;;;;11.04;94.01;102050.97;5061175;28;20064;-69
2023/04/09 08:22:59;;;;;;;11.02;2.72;;;;;;;10.63;93.43;102054.25;5071430;28;20051;-69
2023/04/09 08:25:25;;;;;;;4.68;2.72;;;;;;;10.67;95.17;102058.69;5089062;28;20062;-70
2023/04/09 08:27:50;;;;;;;5.68;2.45;;;;;;;10.76;93.93;102059.47;5062428;28;20666;-69
2023/04/09 08:30:16;;;;;;;4.82;2.65;;;;;;;10.79;94.50;102049.97;5046002;28;20032;-70
2023/04/09 08:32:43;;;;;;;8.80;3.15;;;;;;;10.72;94.55;102047.75;5048011;28;20024;-69
2023/04/09 08:35:12;;;;;;;6.28;2.58;;;;;;;10.81;94.78;102051.22;5082298;28;20028;-69
2023/04/09 08:37:37;;;;;;;4.05;2.13;;;;;;;10.94;94.60;102054.06;5080711;28;20586;-68
2023/04/09 08:40:03;;;;;;;3.85;2.60;;;;;;;11.04;94.33;102050.97;5081662;28;20058;-68
2023/04/09 08:42:30;;;;;;;10.63;3.50;;;;;;;11.15;92.95;102053.00;5083137;28;20353;-68
2023/04/09 08:44:55;;;;;;;11.43;2.40;;;;;;;11.01;92.57;102044.34;5081622;28;20443;-67
2023/04/09 08:47:21;;;;;;;5.57;2.28;;;;;;;10.98;93.37;102049.56;5081415;28;20048;-68
2023/04/09 08:49:49;;;;;;;8.48;2.50;;;;;;;11.04;93.22;102040.19;5068501;28;20036;-68
2023/04/09 08:52:16;;;;;;;5.25;2.38;;;;;;;11.12;92.55;102047.47;5084550;28;20118;-68
2023/04/09 08:54:41;;;;;;;9.85;2.58;;;;;;;11.19;92.11;102045.84;5089007;28;20028;-67
2023/04/09 08:57:07;;;;;;;13.43;2.75;;;;;;;11.21;92.04;102046.31;5079485;28;20055;-68
2023/04/09 08:59:36;;;;;;;5.93;2.80;;;;;;;11.17;91.74;102058.84;5056014;28;20427;-67
2023/04/09 09:02:10;;;;;;;6.72;2.60;;;;;;;11.22;91.99;102052.50;5069331;28;20396;-67
2023/04/09 09:04:50;;;;;;;3.38;2.33;;;;;;;11.13;90.65;102065.25;5074103;28;20434;-67
2023/04/09 09:07:16;;;;;;;8.75;2.63;;;;;;;11.15;91.71;102053.00;5096940;28;20039;-67
2023/04/09 09:09:58;;;;;;;4.88;2.00;;;;;;;11.20;91.30;102058.22;5065520;28;20032;-68
2023/04/09 09:12:40;;;;;;;3.88;2.38;;;;;;;11.28;90.91;102051.22;5082674;28;20166;-67
2023/04/09 09:15:25;;;;;;;4.75;2.60;;;;;;;11.28;90.60;102059.31;5071546;28;20028;-68
2023/04/09 09:17:57;;;;;;;5.82;1.98;;;;;;;11.34;91.03;102063.41;5070414;28;20036;-70
2023/04/09 09:20:23;;;;;;;7.85;1.75;;;;;;;11.38;90.32;102056.25;5091558;28;20035;-68
2023/04/09 09:22:51;;;;;;;3.78;1.65;;;;;;;11.37;90.98;102055.44;5076545;28;20102;-68
2023/04/09 09:25:16;;;;;;;11.07;3.13;;;;;;;11.50;90.30;102056.31;5071978;28;20071;-68
2023/04/09 09:27:42;;;;;;;8.73;2.35;;;;;;;11.55;90.25;102059.63;5089541;28;20055;-70
2023/04/09 09:30:09;;;;;;;2.75;1.60;;;;;;;11.64;90.24;102057.66;5091842;28;20020;-68
2023/04/09 09:32:35;;;;;;;7.05;3.13;;;;;;;11.72;90.12;102054.16;5064852;28;20043;-68
2023/04/09 09:35:06;;;;;;;5.53;2.45;;;;;;;11.72;88.97;102064.97;5066241;28;20028;-68
2023/04/09 09:37:32;;;;;;;3.63;1.30;;;;;;;11.77;88.51;102055.84;5084391;28;20040;-68
2023/04/09 09:39:59;;;;;;;2.90;1.88;;;;;;;11.87;88.33;102054.69;5088810;28;20047;-68
2023/04/09 09:42:26;;;;;;;3.10;1.85;;;;;;;11.98;88.63;102051.25;5092449;28;20044;-68
2023/04/09 09:44:52;;;;;;;3.22;1.48;;;;;;;12.00;88.27;102056.34;5074373;28;20044;-67
2023/04/09 09:47:21;;;;;;;2.25;1.80;;;;;;;11.94;87.51;102044.16;5092207;28;20052;-67
2023/04/09 09:49:50;;;;;;;3.88;2.30;;;;;;;11.89;87.30;102039.75;5086991;28;20036;-68
2023/04/09 09:52:23;;;;;;;6.53;2.17;;;;;;;11.98;87.23;102053.19;5082475;28;20137;-67
2023/04/09 09:54:54;;;;;;;4.38;2.35;;;;;;;11.89;86.17;102047.84;5088872;28;20443;-68
2023/04/09 09:57:22;;;;;;;;;;;;;;;11.96;86.27;102048.13;5088318;28;20032;-67
2023/04/09 10:00:03;;;;;;;3.25;1.55;;;;;;;11.91;85.91;102053.72;5054031;28;19912;-67
2023/04/09 10:02:50;;;;;;;5.00;2.15;;;;;;;11.98;86.93;102048.56;5067038;28;20526;-67
2023/04/09 10:05:16;;;;;;;2.60;1.40;;;;;;;12.24;85.78;102043.75;5081938;28;20036;-68
2023/04/09 10:07:43;;;;;;;4.75;2.50;;;;;;;12.14;85.30;102044.16;5058182;28;20039;-69
2023/04/09 10:10:09;;;;;;;2.92;1.90;;;;;;;12.18;85.65;102045.06;5063074;28;20591;-68
2023/04/09 10:12:35;;;;;;;5.55;2.55;;;;;;;12.25;85.19;102050.72;5083549;28;20047;-68
2023/04/09 10:15:03;;;;;;;3.95;1.83;;;;;;;12.32;84.42;102053.69;5095902;28;20682;-67
2023/04/09 10:17:30;;;;;;;4.32;2.47;;;;;;;12.35;84.26;102044.91;5086922;28;20024;-67
2023/04/09 10:20:04;;;;;;;5.32;2.33;;;;;;;12.38;84.35;102044.28;5086507;28;20413;-68
2023/04/09 10:22:33;;;;;;;3.05;2.33;;;;;;;12.40;84.19;102047.44;5085079;28;20040;-68
2023/04/09 10:24:59;;;;;;;4.90;2.17;;;;;;;12.37;83.57;102041.88;5067533;28;20031;-68
2023/04/09 10:27:26;;;;;;;3.20;2.40;;;;;;;12.35;83.89;102042.22;5080784;28;20044;-69
2023/04/09 10:29:52;;;;;;;8.52;2.15;;;;;;;12.40;83.88;102046.63;5084814;28;20036;-69
2023/04/09 10:32:25;;;;;;;5.18;1.95;;;;;;;12.31;83.19;102046.69;5090379;28;20104;-68
2023/04/09 10:34:50;;;;;;;3.25;2.10;;;;;;;12.29;82.24;102040.06;5083253;28;20043;-69
2023/04/09 10:37:24;;;;;;;5.50;2.08;;;;;;;12.29;82.71;102043.53;5078184;28;20043;-70
2023/04/09 10:39:51;;;;;;;2.40;1.17;;;;;;;12.28;82.44;102035.78;5079956;28;20032;-70
2023/04/09 10:42:29;;;;;;;3.50;1.73;;;;;;;12.39;82.89;102032.31;5062861;28;20024;-68
2023/04/09 10:45:12;;;;;;;4.50;2.22;;;;;;;12.45;81.82;102025.59;5084078;28;20051;-69
2023/04/09 10:47:40;;;;;;;4.05;1.80;;;;;;;12.40;81.79;102023.13;5080894;28;20032;-67
2023/04/09 10:50:24;;;;;;;5.47;2.20;;;;;;;12.59;81.90;102039.59;5065949;28;20028;-69
2023/04/09 10:52:59;;;;;;;2.95;1.65;;;;;;;12.69;81.25;102036.47;5066630;28;20031;-68
2023/04/09 10:55:35;;;;;;;6.05;2.00;;;;;;;12.69;81.03;102033.00;5085787;28;20101;-67
2023/04/09 10:58:02;;;;;;;4.60;2.17;;;;;;;12.83;80.83;102032.69;5079492;28;20048;-67
2023/04/09 11:00:27;;;;;;;4.70;1.83;;;;;;;13.00;80.07;102024.34;5060288;28;20043;-68
2023/04/09 11:03:04;;;;;;;5.22;1.58;;;;;;;13.08;79.30;102029.69;5048734;28;20028;-68
2023/04/09 11:05:37;;;;;;;2.75;1.80;;;;;;;13.16;79.56;102033.41;5078276;28;20103;-68
2023/04/09 11:08:11;;;;;;;1.25;1.15;;;;;;;13.19;79.24;102024.63;5079222;28;20032;-67
2023/04/09 11:10:43;;;;;;;3.88;1.83;;;;;;;13.12;79.29;102021.69;5083837;28;20395;-68
2023/04/09 11:13:13;;;;;;;6.18;1.48;;;;;;;13.26;79.48;102024.84;5086747;28;20131;-68
2023/04/09 11:15:39;;;;;;;7.57;1.90;;;;;;;13.39;79.41;102023.72;5046591;28;20415;-67
2023/04/09 11:18:12;;;;;;;3.35;1.17;;;;;;;13.57;78.75;102019.63;5084289;28;20038;-68
2023/04/09 11:20:39;;;;;;;4.57;1.52;;;;;;;13.44;77.97;102020.78;5088287;28;20120;-67
2023/04/09 11:23:04;;;;;;;5.78;1.67;;;;;;;13.54;77.97;102025.72;5061148;28;20059;-69
2023/04/09 11:25:32;;;;;;;4.82;1.70;;;;;;;13.64;78.35;102024.47;5058973;28;20492;-67
2023/04/09 11:27:58;;;;;;;4.85;1.52;;;;;;;13.52;78.91;102022.56;5077383;28;20055;-68
2023/04/09 11:30:23;;;;;;;2.22;1.25;;;;;;;13.62;78.40;102024.03;5064346;28;20764;-69